Time;durP1;ratioP1;P1;durP2;ratioP2;P2;SDS_P1;SDS_P2;PMS_P1;PMS_P2;Temp;Humidity;BMP_temperature;BMP_pressure;BME280_temperature;BME280_humidity;BME280_pressure;Samples;Min_cycle;Max_cycle;Signal;HPM_P1;HPM_P2
2023/05/01 00:02:08;;;;;;;;;;;;;;;12.41;100.00;96079.19;4979862;28;19926;-87
2023/05/01 00:04:35;;;;;;;;;;;;;;;12.44;100.00;96078.66;4996311;28;19930;-87
2023/05/01 00:07:02;;;;;;;;;;;;;;;12.43;100.00;96085.97;5020995;28;19993;-87
2023/05/01 00:09:32;;;;;;;;;;;;;;;12.42;100.00;96084.31;5005447;28;19929;-87
2023/05/01 00:11:59;;;;;;;;;;;;;;;12.40;100.00;96080.25;4984572;28;19934;-86
2023/05/01 00:14:28;;;;;;;;;;;;;;;12.42;100.00;96078.09;4989824;28;19925;-86
2023/05/01 00:16:55;;;;;;;;;;;;;;;12.33;100.00;96075.00;5010643;28;19936;-87
2023/05/01 00:19:22;;;;;;;;;;;;;;;12.30;100.00;96070.09;4976408;28;19956;-86
2023/05/01 00:21:51;;;;;;;;;;;;;;;12.31;100.00;96073.59;4982659;28;19926;-87
2023/05/01 00:24:18;;;;;;;;;;;;;;;12.28;100.00;96074.09;5026556;28;19930;-86
2023/05/01 00:26:45;;;;;;;;;;;;;;;12.27;100.00;96069.75;4990919;28;19950;-87
2023/05/01 00:29:11;;;;;;;;;;;;;;;12.30;100.00;96074.69;5005197;28;19934;-87
2023/05/01 00:31:42;;;;;;;;;;;;;;;12.30;100.00;96067.38;4988488;28;19926;-86
2023/05/01 00:34:10;;;;;;;;;;;;;;;12.32;100.00;96067.13;4985101;28;19958;-86
2023/05/01 00:36:37;;;;;;;;;;;;;;;12.36;100.00;96066.38;4989928;28;19926;-87
2023/05/01 00:39:05;;;;;;;;;;;;;;;12.38;100.00;96064.25;4987530;28;19926;-87
2023/05/01 00:41:32;;;;;;;;;;;;;;;12.38;100.00;96058.00;4990599;28;19925;-87
2023/05/01 00:43:59;;;;;;;;;;;;;;;12.34;100.00;96060.38;4987808;28;19952;-87
2023/05/01 00:46:26;;;;;;;;;;;;;;;12.34;100.00;96057.66;5000744;28;20068;-87
2023/05/01 00:48:54;;;;;;;;;;;;;;;12.34;100.00;96054.97;4990165;28;19933;-87
2023/05/01 00:51:21;;;;;;;;;;;;;;;12.34;100.00;96057.66;5010422;28;19926;-86
2023/05/01 00:53:48;;;;;;;;;;;;;;;12.36;100.00;96052.84;4992185;28;19926;-86
2023/05/01 00:56:16;;;;;;;;;;;;;;;12.36;100.00;96050.13;4981069;28;19936;-87
2023/05/01 00:58:42;;;;;;;;;;;;;;;12.31;100.00;96052.78;5017764;28;19930;-86
2023/05/01 01:01:09;;;;;;;;;;;;;;;12.22;100.00;96054.25;4982986;28;19926;-87
2023/05/01 01:03:38;;;;;;;;;;;;;;;12.14;100.00;96049.25;5020261;28;19937;-86
2023/05/01 01:06:10;;;;;;;;;;;;;;;12.06;100.00;96042.38;5001010;28;20028;-86
2023/05/01 01:08:40;;;;;;;;;;;;;;;12.05;100.00;96040.75;4985626;28;19998;-87
2023/05/01 01:11:20;;;;;;;;;;;;;;;12.07;100.00;96040.50;4985410;28;19957;-86
2023/05/01 01:13:52;;;;;;;;;;;;;;;12.07;100.00;96038.63;4993606;28;19941;-86
2023/05/01 01:16:23;;;;;;;;;;;;;;;12.05;100.00;96032.63;4986094;28;19977;-87
2023/05/01 01:18:53;;;;;;;;;;;;;;;12.04;100.00;96038.28;5019514;28;19933;-87
2023/05/01 01:21:23;;;;;;;;;;;;;;;12.03;100.00;96032.03;5003123;28;19926;-86
2023/05/01 01:24:01;;;;;;;;;;;;;;;11.96;100.00;96034.09;4987036;28;19929;-87
2023/05/01 01:26:39;;;;;;;;;;;;;;;12.00;100.00;96037.13;4987256;28;19932;-86
2023/05/01 01:29:22;;;;;;;;;;;;;;;12.02;100.00;96024.97;4982015;28;20020;-86
2023/05/01 01:31:56;;;;;;;;;;;;;;;12.03;100.00;96031.22;4977723;28;19933;-86
2023/05/01 01:34:26;;;;;;;;;;;;;;;12.04;100.00;96027.44;5006999;28;19926;-86
2023/05/01 01:36:59;;;;;;;;;;;;;;;12.03;100.00;96023.94;4981486;28;19960;-87
2023/05/01 01:39:30;;;;;;;;;;;;;;;12.02;100.00;96027.69;5018562;28;19934;-86
2023/05/01 01:41:58;;;;;;;;;;;;;;;12.03;100.00;96025.81;5017998;28;20014;-86
2023/05/01 01:44:28;;;;;;;;;;;;;;;12.02;100.00;96027.69;4990211;28;19957;-86
2023/05/01 01:46:55;;;;;;;;;;;;;;;12.03;100.00;96026.63;4983234;28;20009;-86
2023/05/01 01:49:24;;;;;;;;;;;;;;;12.01;100.00;96036.88;4979231;28;19927;-87
2023/05/01 01:51:54;;;;;;;;;;;;;;;12.01;100.00;96034.16;4984557;28;19926;-86
2023/05/01 01:54:23;;;;;;;;;;;;;;;12.03;100.00;96036.63;4986205;28;19964;-86
2023/05/01 01:56:51;;;;;;;;;;;;;;;12.01;100.00;96036.88;4995671;28;19985;-86
2023/05/01 01:59:18;;;;;;;;;;;;;;;11.96;100.00;96025.97;4983139;28;21504;-85
2023/05/01 02:01:46;;;;;;;;;;;;;;;11.93;100.00;96031.88;4988332;28;20021;-86
2023/05/01 02:04:14;;;;;;;;;;;;;;;11.88;100.00;96033.69;4985919;28;20001;-86
2023/05/01 02:06:42;;;;;;;;;;;;;;;11.82;100.00;96030.09;4984074;28;19936;-85
2023/05/01 02:09:11;;;;;;;;;;;;;;;11.79;100.00;96030.56;4997419;28;19930;-85
2023/05/01 02:11:39;;;;;;;;;;;;;;;11.79;100.00;96032.47;5007208;28;19933;-86
2023/05/01 02:14:07;;;;;;;;;;;;;;;11.80;100.00;96024.09;4986624;28;19940;-86
2023/05/01 02:16:36;;;;;;;;;;;;;;;11.80;100.00;96023.28;4985128;28;19933;-86
2023/05/01 02:19:04;;;;;;;;;;;;;;;11.77;100.00;96026.47;4987833;28;19941;-86
2023/05/01 02:21:32;;;;;;;;;;;;;;;11.73;100.00;96026.13;4985947;28;19938;-86
2023/05/01 02:24:00;;;;;;;;;;;;;;;11.76;100.00;96022.94;4981811;28;19933;-86
2023/05/01 02:26:30;;;;;;;;;;;;;;;11.75;100.00;96024.81;4986992;28;19926;-85
2023/05/01 02:28:57;;;;;;;;;;;;;;;11.76;100.00;96014.81;4982349;28;19930;-85
2023/05/01 02:31:24;;;;;;;;;;;;;;;11.72;100.00;96019.06;4987265;28;19955;-86
2023/05/01 02:33:51;;;;;;;;;;;;;;;11.63;100.00;96015.13;4983374;28;19973;-86
2023/05/01 02:36:17;;;;;;;;;;;;;;;11.62;100.00;96008.91;5013550;28;19926;-85
2023/05/01 02:38:46;;;;;;;;;;;;;;;11.63;100.00;96009.72;4993735;28;19930;-85
2023/05/01 02:41:15;;;;;;;;;;;;;;;11.62;100.00;96013.47;4990402;28;19937;-85
2023/05/01 02:43:43;;;;;;;;;;;;;;;11.62;100.00;96008.91;4985072;28;19925;-86
2023/05/01 02:46:11;;;;;;;;;;;;;;;11.58;100.00;96005.03;5022274;28;19926;-85
2023/05/01 02:48:38;;;;;;;;;;;;;;;11.52;100.00;96002.50;4988084;28;19930;-85
2023/05/01 02:51:06;;;;;;;;;;;;;;;11.48;100.00;96001.34;4989003;28;19936;-85
2023/05/01 02:53:33;;;;;;;;;;;;;;;11.54;100.00;96005.78;4980179;28;19926;-85
2023/05/01 02:56:13;;;;;;;;;;;;;;;11.51;100.00;96001.66;5017823;28;19933;-86
2023/05/01 02:58:40;;;;;;;;;;;;;;;11.45;100.00;95999.94;5020329;28;19926;-86
2023/05/01 03:01:10;;;;;;;;;;;;;;;11.41;100.00;95992.56;4979085;28;19940;-85
2023/05/01 03:03:37;;;;;;;;;;;;;;;11.35;100.00;95999.75;4992919;28;19956;-85
2023/05/01 03:06:03;;;;;;;;;;;;;;;11.33;100.00;95999.19;4978888;28;19926;-85
2023/05/01 03:08:30;;;;;;;;;;;;;;;11.33;100.00;95997.31;4987100;28;20015;-85
2023/05/01 03:10:57;;;;;;;;;;;;;;;11.31;100.00;95996.72;4986371;28;19930;-84
2023/05/01 03:13:24;;;;;;;;;;;;;;;11.28;100.00;95999.09;5010949;28;19996;-85
2023/05/01 03:15:51;;;;;;;;;;;;;;;11.19;100.00;95995.16;4983750;28;19936;-84
2023/05/01 03:18:19;;;;;;;;;;;;;;;11.19;100.00;95995.97;4989082;28;19926;-85
2023/05/01 03:20:51;;;;;;;;;;;;;;;11.20;100.00;95994.91;4984451;28;19933;-85
2023/05/01 03:23:18;;;;;;;;;;;;;;;11.27;100.00;95994.75;4984437;28;19936;-85
2023/05/01 03:25:45;;;;;;;;;;;;;;;11.26;100.00;95996.63;4985896;28;19933;-86
2023/05/01 03:28:11;;;;;;;;;;;;;;;11.17;100.00;95994.56;5017913;28;19933;-85
2023/05/01 03:30:38;;;;;;;;;;;;;;;11.17;100.00;96000.78;4983212;28;19926;-84
2023/05/01 03:33:05;;;;;;;;;;;;;;;11.16;100.00;95999.16;5018298;28;19925;-84
2023/05/01 03:35:34;;;;;;;;;;;;;;;11.17;100.00;95995.38;4982945;28;19926;-85
2023/05/01 03:38:03;;;;;;;;;;;;;;;11.10;100.00;95989.31;4982693;28;19926;-85
2023/05/01 03:40:48;;;;;;;;;;;;;;;11.06;100.00;95988.16;4983277;28;19999;-85
2023/05/01 03:43:38;;;;;;;;;;;;;;;11.01;100.00;95996.16;4972881;28;19926;-85
2023/05/01 03:46:11;;;;;;;;;;;;;;;11.09;100.00;95995.78;4988529;28;19933;-85
2023/05/01 03:48:37;;;;;;;;;;;;;;;11.13;100.00;95994.25;4993725;28;19972;-85
2023/05/01 03:51:06;;;;;;;;;;;;;;;11.19;100.00;95995.97;4984630;28;19934;-86
2023/05/01 03:53:35;;;;;;;;;;;;;;;11.17;100.00;96000.78;5013152;28;20020;-85
2023/05/01 03:56:04;;;;;;;;;;;;;;;11.12;100.00;95995.31;4982862;28;19940;-85
2023/05/01 03:58:34;;;;;;;;;;;;;;;11.09;100.00;95993.06;5016452;28;20074;-85
2023/05/01 04:01:01;;;;;;;;;;;;;;;11.04;100.00;95990.28;4978209;28;19926;-85
2023/05/01 04:03:30;;;;;;;;;;;;;;;10.99;100.00;95996.41;5009971;28;20024;-86
2023/05/01 04:05:57;;;;;;;;;;;;;;;11.00;100.00;95989.94;4984672;28;19930;-85
2023/05/01 04:08:25;;;;;;;;;;;;;;;10.99;100.00;95998.28;4979807;28;19926;-86
2023/05/01 04:10:52;;;;;;;;;;;;;;;11.00;100.00;95999.94;4984832;28;19948;-86
2023/05/01 04:13:19;;;;;;;;;;;;;;;11.09;100.00;95997.66;5017203;28;19934;-86
2023/05/01 04:15:46;;;;;;;;;;;;;;;11.14;100.00;96001.28;4979066;28;19965;-86
2023/05/01 04:18:13;;;;;;;;;;;;;;;11.14;100.00;95995.91;5015216;28;20025;-86
2023/05/01 04:20:40;;;;;;;;;;;;;;;11.12;100.00;95994.47;4988356;28;20015;-85
2023/05/01 04:23:08;;;;;;;;;;;;;;;11.11;100.00;95996.38;4976455;28;19933;-86
2023/05/01 04:25:37;;;;;;;;;;;;;;;11.20;100.00;96002.19;4983204;28;20023;-86
2023/05/01 04:28:11;;;;;;;;;;;;;;;11.22;100.00;96005.50;4988217;28;19926;-86
2023/05/01 04:30:38;;;;;;;;;;;;;;;11.22;100.00;96006.31;5019503;28;19930;-85
2023/05/01 04:33:10;;;;;;;;;;;;;;;11.15;100.00;96005.59;4985995;28;19925;-86
2023/05/01 04:35:38;;;;;;;;;;;;;;;11.11;100.00;96009.88;4987522;28;19930;-86
2023/05/01 04:38:04;;;;;;;;;;;;;;;11.16;100.00;96006.44;4987722;28;19926;-86
2023/05/01 04:40:31;;;;;;;;;;;;;;;11.22;100.00;96008.19;4985323;28;19997;-86
2023/05/01 04:43:01;;;;;;;;;;;;;;;11.29;100.00;96008.84;4977733;28;19933;-86
2023/05/01 04:45:28;;;;;;;;;;;;;;;11.35;100.00;96015.97;4988444;28;19929;-86
2023/05/01 04:47:55;;;;;;;;;;;;;;;11.35;100.00;96011.41;4988272;28;19985;-86
2023/05/01 04:50:22;;;;;;;;;;;;;;;11.34;100.00;96022.44;4998806;28;19926;-85
2023/05/01 04:52:49;;;;;;;;;;;;;;;11.35;100.00;96011.41;4986358;28;19926;-85
2023/05/01 04:55:17;;;;;;;;;;;;;;;11.41;100.00;96022.28;5017385;28;19969;-85
2023/05/01 04:58:04;;;;;;;;;;;;;;;11.46;100.00;96017.81;4984779;28;19965;-86
2023/05/01 05:00:32;;;;;;;;;;;;;;;11.50;100.00;96026.25;4991642;28;19968;-86
2023/05/01 05:03:00;;;;;;;;;;;;;;;11.42;100.00;96023.94;4987587;28;19930;-85
2023/05/01 05:05:27;;;;;;;;;;;;;;;11.37;100.00;96027.38;4998971;28;19926;-87
2023/05/01 05:07:53;;;;;;;;;;;;;;;11.31;100.00;96031.06;4989590;28;20145;-86
2023/05/01 05:10:34;;;;;;;;;;;;;;;11.29;100.00;96036.72;4984784;28;19937;-86
2023/05/01 05:13:21;;;;;;;;;;;;;;;11.33;100.00;96042.44;5012854;28;19930;-86
2023/05/01 05:15:56;;;;;;;;;;;;;;;11.41;100.00;96041.22;4980116;28;20017;-87
2023/05/01 05:18:24;;;;;;;;;;;;;;;11.44;100.00;96038.84;4985475;28;19933;-85
2023/05/01 05:20:51;;;;;;;;;;;;;;;11.44;100.00;96038.84;4979218;28;19926;-86
2023/05/01 05:23:18;;;;;;;;;;;;;;;11.41;100.00;96038.50;4981922;28;19933;-86
2023/05/01 05:25:45;;;;;;;;;;;;;;;11.44;100.00;96041.56;4988953;28;20005;-86
2023/05/01 05:28:11;;;;;;;;;;;;;;;11.49;100.00;96040.81;4991874;28;19926;-85
2023/05/01 05:30:40;;;;;;;;;;;;;;;11.48;100.00;96044.59;4992353;28;20024;-85
2023/05/01 05:33:09;;;;;;;;;;;;;;;11.49;100.00;96051.63;4990782;28;19930;-86
2023/05/01 05:35:36;;;;;;;;;;;;;;;11.52;100.00;96040.34;4987486;28;19933;-86
2023/05/01 05:38:03;;;;;;;;;;;;;;;11.51;100.00;96038.69;5017959;28;19926;-85
2023/05/01 05:40:34;;;;;;;;;;;;;;;11.52;100.00;96046.56;4990284;28;19926;-86
2023/05/01 05:43:01;;;;;;;;;;;;;;;11.53;100.00;96052.81;5010901;28;19929;-86
2023/05/01 05:45:30;;;;;;;;;;;;;;;11.50;100.00;96048.69;5018734;28;19930;-87
2023/05/01 05:47:58;;;;;;;;;;;;;;;11.50;100.00;96054.09;4986065;28;19926;-86
2023/05/01 05:50:27;;;;;;;;;;;;;;;11.55;100.00;96050.69;4987583;28;19949;-86
2023/05/01 05:52:54;;;;;;;;;;;;;;;11.53;100.00;96052.81;4979969;28;20020;-86
2023/05/01 05:55:20;;;;;;;;;;;;;;;11.47;100.00;96046.50;4986144;28;19926;-86
2023/05/01 05:57:59;;;;;;;;;;;;;;;11.53;100.00;96050.91;5017618;28;20024;-86
2023/05/01 06:00:26;;;;;;;;;;;;;;;11.60;100.00;96059.69;5036699;23;19950;-79
2023/05/01 06:02:55;;;;;;;;;;;;;;;11.61;100.00;96057.81;4986970;28;20020;-80
2023/05/01 06:05:26;;;;;;;;;;;;;;;11.61;100.00;96050.53;5008374;28;19961;-79
2023/05/01 06:07:53;;;;;;;;;;;;;;;11.62;100.00;96051.34;5041432;23;19935;-83
2023/05/01 06:10:21;;;;;;;;;;;;;;;11.68;100.00;96061.19;5025141;28;20059;-83
2023/05/01 06:12:49;;;;;;;;;;;;;;;11.73;100.00;96058.56;5029309;28;19932;-83
2023/05/01 06:15:16;;;;;;;;;;;;;;;11.72;100.00;96054.22;5029032;28;19933;-83
2023/05/01 06:17:48;;;;;;;;;;;;;;;11.76;100.00;96058.09;5027175;28;19932;-83
2023/05/01 06:20:15;;;;;;;;;;;;;;;11.78;100.00;96055.16;5058468;28;19971;-83
2023/05/01 06:22:43;;;;;;;;;;;;;;;11.79;100.00;96054.91;5027060;28;19973;-83
2023/05/01 06:25:16;;;;;;;;;;;;;;;11.82;100.00;96054.44;5028143;28;19925;-83
2023/05/01 06:27:43;;;;;;;;;;;;;;;11.86;100.00;96055.56;5027884;28;19940;-83
2023/05/01 06:30:11;;;;;;;;;;;;;;;11.89;100.00;96056.97;5027759;28;19952;-83
2023/05/01 06:32:42;;;;;;;;;;;;;;;11.89;100.00;96060.50;5021256;28;19948;-83
2023/05/01 06:35:10;;;;;;;;;;;;;;;11.92;100.00;96061.88;5029526;28;19925;-83
2023/05/01 06:37:37;;;;;;;;;;;;;;;11.94;100.00;96065.16;5028644;28;19925;-83
2023/05/01 06:40:08;;;;;;;;;;;;;;;11.93;100.00;96061.63;5031738;28;19925;-83
2023/05/01 06:42:35;;;;;;;;;;;;;;;11.88;100.00;96066.97;5027553;28;19929;-83
2023/05/01 06:45:02;;;;;;;;;;;;;;;11.90;100.00;96067.56;5026249;28;19929;-83
2023/05/01 06:47:29;;;;;;;;;;;;;;;11.84;100.00;96071.22;5027771;28;19931;-83
2023/05/01 06:49:55;;;;;;;;;;;;;;;11.87;100.00;96070.75;5028798;28;19933;-83
2023/05/01 06:52:22;;;;;;;;;;;;;;;11.89;100.00;96073.22;5030571;28;19925;-83
2023/05/01 06:54:49;;;;;;;;;;;;;;;11.90;100.00;96074.84;5024419;28;19925;-83
2023/05/01 06:57:17;;;;;;;;;;;;;;;11.87;100.00;96080.75;5025596;28;19925;-84
2023/05/01 06:59:45;;;;;;;;;;;;;;;11.92;100.00;96078.09;5029427;28;19937;-83
2023/05/01 07:02:12;;;;;;;;;;;;;;;11.88;100.00;96082.38;5027846;28;20014;-84
2023/05/01 07:04:39;;;;;;;;;;;;;;;11.83;100.00;96091.22;5026610;28;19932;-83
2023/05/01 07:07:06;;;;;;;;;;;;;;;11.79;100.00;96087.38;5028160;28;19925;-84
2023/05/01 07:09:32;;;;;;;;;;;;;;;11.81;100.00;96101.50;5028831;28;19932;-84
2023/05/01 07:12:01;;;;;;;;;;;;;;;11.85;100.00;96094.50;5025030;28;20283;-84
2023/05/01 07:14:30;;;;;;;;;;;;;;;11.86;100.00;96098.84;5028035;28;19925;-84
2023/05/01 07:16:57;;;;;;;;;;;;;;;11.84;100.00;96102.88;5027282;28;19949;-84
2023/05/01 07:19:25;;;;;;;;;;;;;;;11.77;100.00;96103.03;5018444;28;19929;-84
2023/05/01 07:21:51;;;;;;;;;;;;;;;11.63;100.00;96099.78;5018690;28;19925;-84
2023/05/01 07:24:18;;;;;;;;;;;;;;;11.57;100.00;96108.06;5022372;28;19925;-84
2023/05/01 07:26:45;;;;;;;;;;;;;;;11.58;100.00;96098.84;5028811;28;19933;-84
2023/05/01 07:29:12;;;;;;;;;;;;;;;11.56;100.00;96101.81;5025137;28;19929;-85
2023/05/01 07:31:40;;;;;;;;;;;;;;;11.61;100.00;96103.78;5029071;28;19929;-85
2023/05/01 07:34:07;;;;;;;;;;;;;;;11.52;100.00;96105.22;5025370;28;19925;-85
2023/05/01 07:36:34;;;;;;;;;;;;;;;11.49;100.00;96113.81;5025808;28;19927;-85
2023/05/01 07:39:01;;;;;;;;;;;;;;;11.49;100.00;96113.81;5025959;28;19972;-85
2023/05/01 07:41:27;;;;;;;;;;;;;;;11.47;100.00;96110.56;5026404;28;19948;-85
2023/05/01 07:43:54;;;;;;;;;;;;;;;11.49;100.00;96116.53;5025645;28;19925;-86
2023/05/01 07:46:21;;;;;;;;;;;;;;;11.56;100.00;96117.22;5026699;28;19926;-85
2023/05/01 07:48:49;;;;;;;;;;;;;;;11.55;100.00;96116.41;5024626;28;19929;-85
2023/05/01 07:51:17;;;;;;;;;;;;;;;11.51;100.00;96128.75;5025438;28;19929;-86
2023/05/01 07:53:46;;;;;;;;;;;;;;;11.45;100.00;96124.31;5023171;28;19925;-86
2023/05/01 07:56:12;;;;;;;;;;;;;;;11.48;100.00;96120.31;5023272;28;20164;-86
2023/05/01 07:58:41;;;;;;;;;;;;;;;11.47;100.00;96127.59;5026020;28;19932;-87
2023/05/01 08:01:08;;;;;;;;;;;;;;;11.55;100.00;96126.38;5018805;28;20012;-87
2023/05/01 08:03:35;;;;;;;;;;;;;;;11.56;100.00;96128.03;5013764;28;19929;-87
2023/05/01 08:06:04;;;;;;;;;;;;;;;11.49;100.00;96130.88;5026112;28;19925;-86
2023/05/01 08:08:30;;;;;;;;;;;;;;;11.54;100.00;96138.28;5027034;28;19932;-87
2023/05/01 08:10:57;;;;;;;;;;;;;;;11.64;100.00;96135.75;5026337;28;19988;-87
2023/05/01 08:13:24;;;;;;;;;;;;;;;11.71;100.00;96128.31;5026701;28;19928;-87
2023/05/01 08:15:51;;;;;;;;;;;;;;;11.78;100.00;96136.31;5024315;28;19929;-87
2023/05/01 08:18:19;;;;;;;;;;;;;;;11.68;100.00;96143.13;5025491;28;20007;-88
2023/05/01 08:20:46;;;;;;;;;;;;;;;11.66;100.00;96141.72;5021317;28;20020;-87
2023/05/01 08:23:15;;;;;;;;;;;;;;;11.74;100.00;96146.75;5029951;28;19968;-86
2023/05/01 08:25:42;;;;;;;;;;;;;;;11.78;100.00;96150.66;5032356;28;19925;-87
2023/05/01 08:28:09;;;;;;;;;;;;;;;11.85;100.00;96143.19;5031326;28;19925;-87
2023/05/01 08:30:36;;;;;;;;;;;;;;;11.78;100.00;96147.94;5030757;28;19925;-87
2023/05/01 08:33:03;;;;;;;;;;;;;;;11.83;100.00;96149.91;5027826;28;19925;-87
2023/05/01 08:35:30;;;;;;;;;;;;;;;11.87;100.00;96148.38;5029916;28;19929;-87
2023/05/01 08:37:56;;;;;;;;;;;;;;;11.92;100.00;96153.88;5031199;28;19932;-86
2023/05/01 08:40:26;;;;;;;;;;;;;;;11.95;100.00;96153.38;5033005;28;19984;-86
2023/05/01 08:42:54;;;;;;;;;;;;;;;11.95;100.00;96158.81;5028286;28;19929;-86
2023/05/01 08:45:23;;;;;;;;;;;;;;;11.86;100.00;96163.78;5031544;28;19932;-86
2023/05/01 08:47:52;;;;;;;;;;;;;;;11.86;100.00;96157.56;5021629;28;19925;-86
2023/05/01 08:50:21;;;;;;;;;;;;;;;11.82;100.00;96159.94;5028565;28;19964;-87
2023/05/01 08:52:50;;;;;;;;;;;;;;;11.84;100.00;96157.78;5037333;28;19988;-86
2023/05/01 08:55:18;;;;;;;;;;;;;;;11.83;100.00;96163.44;5031482;28;20031;-86
2023/05/01 08:57:47;;;;;;;;;;;;;;;11.87;100.00;96162.72;5029182;28;19929;-86
2023/05/01 09:00:17;;;;;;;;;;;;;;;11.83;100.00;96160.72;5015789;28;19929;-86
2023/05/01 09:02:45;;;;;;;;;;;;;;;11.91;100.00;96161.16;5030442;28;19929;-86
2023/05/01 09:05:12;;;;;;;;;;;;;;;12.02;100.00;96159.47;5032459;28;20020;-86
2023/05/01 09:07:40;;;;;;;;;;;;;;;12.09;100.00;96171.78;5031794;28;19933;-86
2023/05/01 09:10:08;;;;;;;;;;;;;;;12.15;100.00;96161.06;5032438;28;19925;-86
2023/05/01 09:12:35;;;;;;;;;;;;;;;12.10;100.00;96167.19;5025462;28;19994;-86
2023/05/01 09:15:03;;;;;;;;;;;;;;;12.11;100.00;96164.25;5028364;28;20015;-86
2023/05/01 09:17:32;;;;;;;;;;;;;;;12.16;100.00;96176.22;5026708;28;19956;-86
2023/05/01 09:19:59;;;;;;;;;;;;;;;12.13;100.00;96172.94;5020578;28;19929;-86
2023/05/01 09:22:26;;;;;;;;;;;;;;;12.12;100.00;96176.72;5031655;28;19931;-86
2023/05/01 09:24:52;;;;;;;;;;;;;;;12.16;100.00;96165.41;5028230;28;19925;-86
2023/05/01 09:27:19;;;;;;;;;;;;;;;12.12;100.00;96179.41;5027490;28;19925;-86
2023/05/01 09:29:47;;;;;;;;;;;;;;;12.08;100.00;96175.53;5027677;28;19925;-86
2023/05/01 09:32:16;;;;;;;;;;;;;;;12.12;100.00;96176.72;5029639;28;19929;-86
2023/05/01 09:34:44;;;;;;;;;;;;;;;12.24;100.00;96175.84;5026776;28;19976;-86
2023/05/01 09:37:12;;;;;;;;;;;;;;;12.30;100.00;96181.09;5028862;28;19975;-86
2023/05/01 09:39:40;;;;;;;;;;;;;;;12.37;100.00;96183.63;5030531;28;19975;-86
2023/05/01 09:42:07;;;;;;;;;;;;;;;12.37;100.00;96189.84;5028835;28;19925;-86
2023/05/01 09:44:40;;;;;;;;;;;;;;;12.39;100.00;96181.50;5024149;28;19940;-86
2023/05/01 09:47:08;;;;;;;;;;;;;;;12.37;100.00;96184.44;5030048;28;19940;-86
2023/05/01 09:49:53;;;;;;;;;;;;;;;12.22;100.00;96188.78;5032195;28;19929;-86
2023/05/01 09:52:21;;;;;;;;;;;;;;;12.25;100.00;96182.88;5029467;28;19965;-85
2023/05/01 09:54:48;;;;;;;;;;;;;;;12.24;100.00;96189.38;5030721;28;19925;-86
2023/05/01 09:57:14;;;;;;;;;;;;;;;12.30;100.00;96180.25;5028243;28;19929;-85
2023/05/01 09:59:41;;;;;;;;;;;;;;;12.24;100.00;96189.38;5028855;28;19937;-86
2023/05/01 10:02:27;;;;;;;;;;;;;;;12.27;100.00;96186.16;5017788;28;19932;-86
2023/05/01 10:04:58;;;;;;;;;;;;;;;12.34;100.00;96184.91;5025813;28;20357;-86
2023/05/01 10:07:26;;;;;;;;;;;;;;;12.43;100.00;96180.75;5028723;28;19951;-86
2023/05/01 10:09:54;;;;;;;;;;;;;;;12.45;100.00;96181.31;5031353;28;19925;-85
2023/05/01 10:12:25;;;;;;;;;;;;;;;12.46;100.00;96177.56;5029043;28;20055;-86
2023/05/01 10:14:52;;;;;;;;;;;;;;;12.40;100.00;96177.72;5024605;28;19926;-86
2023/05/01 10:17:19;;;;;;;;;;;;;;;12.35;100.00;96181.16;5027247;28;19929;-86
2023/05/01 10:19:47;;;;;;;;;;;;;;;12.42;100.00;96176.38;5021328;28;19925;-86
2023/05/01 10:22:14;;;;;;;;;;;;;;;12.42;100.00;96183.69;5030668;28;19925;-86
2023/05/01 10:24:44;;;;;;;;;;;;;;;12.37;100.00;96175.50;5027758;28;19925;-86
2023/05/01 10:27:12;;;;;;;;;;;;;;;12.16;100.00;96182.47;5023191;28;19933;-86
2023/05/01 10:29:40;;;;;;;;;;;;;;;12.02;100.00;96175.69;5027122;28;19948;-86
2023/05/01 10:32:08;;;;;;;;;;;;;;;11.93;100.00;96174.44;5030393;28;20016;-86
2023/05/01 10:34:36;;;;;;;;;;;;;;;11.96;100.00;96171.28;5025782;28;19929;-86
2023/05/01 10:37:06;;;;;;;;;;;;;;;12.07;100.00;96168.50;5018271;28;19925;-86
2023/05/01 10:39:34;;;;;;;;;;;;;;;12.07;100.00;96173.94;5027494;28;19952;-86
2023/05/01 10:42:03;;;;;;;;;;;;;;;12.27;100.00;96172.63;5029594;28;19933;-86
2023/05/01 10:44:30;;;;;;;;;;;;;;;12.29;100.00;96165.06;5014598;28;19963;-86
2023/05/01 10:46:57;;;;;;;;;;;;;;;12.34;100.00;96167.84;5029488;28;19929;-86
2023/05/01 10:49:24;;;;;;;;;;;;;;;12.37;100.00;96167.38;5032865;28;19925;-85
2023/05/01 10:52:02;;;;;;;;;;;;;;;12.28;100.00;96168.84;5027828;28;19925;-85
2023/05/01 10:54:29;;;;;;;;;;;;;;;12.37;100.00;96167.38;5029603;28;19947;-85
2023/05/01 10:56:57;;;;;;;;;;;;;;;12.52;100.00;96164.91;5026368;28;19956;-85
2023/05/01 10:59:26;;;;;;;;;;;;;;;12.63;100.00;96161.31;5013603;28;19929;-86
2023/05/01 11:01:53;;;;;;;;;;;;;;;12.54;100.00;96168.19;5026787;28;19932;-85
2023/05/01 11:04:38;;;;;;;;;;;;;;;12.57;100.00;96162.28;5028337;28;19972;-85
2023/05/01 11:07:16;;;;;;;;;;;;;;;12.58;100.00;96160.41;5028186;28;19925;-85
2023/05/01 11:09:44;;;;;;;;;;;;;;;12.54;100.00;96159.25;5028217;28;19926;-85
2023/05/01 11:12:11;;;;;;;;;;;;;;;12.55;100.00;96166.31;5026208;28;19932;-85
2023/05/01 11:15:01;;;;;;;;;;;;;;;12.65;100.00;96159.16;5018601;28;19933;-85
2023/05/01 11:17:43;;;;;;;;;;;;;;;12.74;100.00;96160.41;5027311;28;19925;-86
2023/05/01 11:20:11;;;;;;;;;;;;;;;12.75;100.00;96156.63;5026743;28;19989;-85
2023/05/01 11:22:44;;;;;;;;;;;;;;;12.87;100.00;96159.22;5011673;28;21861;-85
2023/05/01 11:25:19;;;;;;;;;;;;;;;12.99;100.00;96157.22;5022236;28;19925;-85
2023/05/01 11:27:47;;;;;;;;;;;;;;;13.05;100.00;96158.09;5029243;28;20048;-85
2023/05/01 11:30:14;;;;;;;;;;;;;;;13.09;100.00;96153.84;5027275;28;19932;-86
2023/05/01 11:32:43;;;;;;;;;;;;;;;13.13;100.00;96152.25;5028781;28;19932;-86
2023/05/01 11:35:17;;;;;;;;;;;;;;;13.18;100.00;96157.78;5015080;28;19932;-85
2023/05/01 11:37:44;;;;;;;;;;;;;;;13.20;100.00;96152.91;5030715;28;19932;-86
2023/05/01 11:40:28;;;;;;;;;;;;;;;13.20;100.00;96161.03;5027335;28;19925;-85
2023/05/01 11:43:00;;;;;;;;;;;;;;;13.17;100.00;96153.44;5028024;28;19961;-86
2023/05/01 11:45:27;;;;;;;;;;;;;;;13.09;100.00;96157.38;5022192;28;19971;-85
2023/05/01 11:47:53;;;;;;;;;;;;;;;13.06;100.00;96149.72;5025362;28;19933;-86
2023/05/01 11:50:22;;;;;;;;;;;;;;;13.10;100.00;96156.28;5027410;28;19925;-85
2023/05/01 11:52:52;;;;;;;;;;;;;;;13.13;100.00;96154.97;5027881;28;19929;-85
2023/05/01 11:55:19;;;;;;;;;;;;;;;13.14;100.00;96151.22;5032506;28;19936;-85
2023/05/01 11:57:46;;;;;;;;;;;;;;;13.17;100.00;96153.44;5029863;28;19933;-85
2023/05/01 12:00:15;;;;;;;;;;;;;;;13.22;100.00;96164.34;5025962;28;19940;-85
2023/05/01 12:02:54;;;;;;;;;;;;;;;13.06;100.00;96157.03;5025686;28;19929;-85
2023/05/01 12:05:23;;;;;;;;;;;;;;;13.10;100.00;96158.19;5033353;28;19925;-86
2023/05/01 12:07:50;;;;;;;;;;;;;;;13.18;100.00;96157.78;5032858;28;20027;-86
2023/05/01 12:10:17;;;;;;;;;;;;;;;13.25;100.00;96153.00;5024838;28;19925;-85
2023/05/01 12:12:44;;;;;;;;;;;;;;;13.30;100.00;96150.34;5030116;28;19971;-85
2023/05/01 12:15:12;;;;;;;;;;;;;;;13.22;100.00;96148.06;5032388;28;19925;-85
2023/05/01 12:17:38;;;;;;;;;;;;;;;13.09;100.00;96148.41;5030235;28;19929;-86
2023/05/01 12:20:06;;;;;;;;;;;;;;;13.11;100.00;96152.50;5035012;28;19925;-85
2023/05/01 12:22:34;;;;;;;;;;;;;;;13.08;100.00;96154.91;5032245;28;19925;-85
2023/05/01 12:25:03;;;;;;;;;;;;;;;13.13;100.00;96155.81;5024913;28;19936;-86
2023/05/01 12:27:31;;;;;;;;;;;;;;;13.20;100.00;96151.03;5030236;28;19932;-85
2023/05/01 12:29:58;;;;;;;;;;;;;;;13.29;100.00;96148.69;5027181;28;19925;-85
2023/05/01 12:32:32;;;;;;;;;;;;;;;13.26;100.00;96151.94;5032835;28;19929;-85
2023/05/01 12:34:59;;;;;;;;;;;;;;;13.25;100.00;96147.56;5022677;28;19929;-85
2023/05/01 12:37:30;;;;;;;;;;;;;;;13.31;100.00;96151.16;5029614;28;19929;-85
2023/05/01 12:39:58;;;;;;;;;;;;;;;13.20;100.00;96152.91;5029861;28;19933;-85
2023/05/01 12:42:25;;;;;;;;;;;;;;;13.15;100.00;96145.56;5029691;28;19925;-85
2023/05/01 12:44:58;;;;;;;;;;;;;;;13.05;100.00;96145.38;5024809;28;20000;-85